createdAt,value
2022-09-13T00:12:01.545Z,6.2
2022-09-13T00:32:01.374Z,5.4
2022-09-13T00:52:01.020Z,7.4
2022-09-13T01:12:00.778Z,6.4
2022-09-13T01:32:00.527Z,7.3
2022-09-13T01:52:00.203Z,7.7
2022-09-13T02:11:59.955Z,7.4
2022-09-13T02:31:59.730Z,10.0
2022-09-13T02:51:59.547Z,8.2
2022-09-13T03:11:59.111Z,11.4
2022-09-13T03:31:58.947Z,9.9
2022-09-13T03:51:58.579Z,11.1
2022-09-13T04:11:58.314Z,14.7
2022-09-13T04:31:58.075Z,16.9
2022-09-13T04:51:57.754Z,18.8
2022-09-13T05:12:06.692Z,21.2
2022-09-13T05:31:57.257Z,16.4
2022-09-13T05:51:56.968Z,16.3
2022-09-13T06:11:56.656Z,15.2
2022-09-13T06:31:56.417Z,14.8
2022-09-13T06:51:56.184Z,17.5
2022-09-13T07:11:55.909Z,13.3
2022-09-13T07:32:02.025Z,10.4
2022-09-13T07:51:55.604Z,6.2
2022-09-13T08:11:57.383Z,2.0
2022-09-13T08:31:57.466Z,3.9
2022-09-13T08:51:54.614Z,2.3
2022-09-13T09:11:54.212Z,1.8
2022-09-13T09:31:53.930Z,1.0
2022-09-13T09:51:53.660Z,0.6
2022-09-13T10:11:53.483Z,0.8
2022-09-13T10:31:53.159Z,1.4
2022-09-13T10:51:52.906Z,0.6
2022-09-13T11:11:52.589Z,2.0
2022-09-13T11:31:52.384Z,0.6
2022-09-13T11:51:52.100Z,1.4
2022-09-13T12:11:51.779Z,1.5
2022-09-13T12:31:52.278Z,0.9
2022-09-13T12:51:51.983Z,1.3
2022-09-13T13:11:51.910Z,1.7
2022-09-13T13:31:51.510Z,3.2
2022-09-13T13:51:50.390Z,1.0
2022-09-13T14:11:50.125Z,1.0
2022-09-13T14:31:49.951Z,1.5
2022-09-13T14:51:49.579Z,0.6
2022-09-13T15:11:49.318Z,1.8
2022-09-13T15:31:49.152Z,2.3
2022-09-13T15:51:48.839Z,1.6
2022-09-13T16:11:48.580Z,1.1
2022-09-13T16:31:48.426Z,0.9
2022-09-13T16:51:48.074Z,1.5
2022-09-13T17:11:47.746Z,2.2
2022-09-13T17:31:47.511Z,1.8
2022-09-13T17:51:47.135Z,0.8
2022-09-13T18:11:47.880Z,0.8
2022-09-13T18:31:46.602Z,0.4
2022-09-13T18:51:46.288Z,2.2
2022-09-13T19:11:47.720Z,1.0
2022-09-13T19:31:45.769Z,1.5
2022-09-13T19:51:49.967Z,1.2
2022-09-13T20:11:45.223Z,0.9
2022-09-13T20:31:44.962Z,0.5
2022-09-13T20:51:44.696Z,1.5
2022-09-13T21:11:44.449Z,0.9
2022-09-13T21:31:44.177Z,1.0
2022-09-13T21:51:43.908Z,1.1
2022-09-13T22:11:43.643Z,2.1
2022-09-13T22:31:43.342Z,0.9
2022-09-13T22:51:43.069Z,1.8
2022-09-13T23:11:42.850Z,1.4
2022-09-13T23:31:42.637Z,0.6
2022-09-13T23:51:42.247Z,1.9
